sensor_id;sensor_type;location;lat;lon;timestamp;P1;durP1;ratioP1;P2;durP2;ratioP2
30420;SDS011;17218;54.070;10.012;2024-03-07T00:00:22;13.37;;;8.10;;
30420;SDS011;17218;54.070;10.012;2024-03-07T00:02:48;15.67;;;7.53;;
30420;SDS011;17218;54.070;10.012;2024-03-07T00:05:16;14.85;;;6.68;;
30420;SDS011;17218;54.070;10.012;2024-03-07T00:07:43;13.68;;;7.65;;
30420;SDS011;17218;54.070;10.012;2024-03-07T00:10:10;13.77;;;7.33;;
30420;SDS011;17218;54.070;10.012;2024-03-07T00:12:37;15.80;;;6.83;;
30420;SDS011;17218;54.070;10.012;2024-03-07T00:15:06;11.13;;;6.83;;
30420;SDS011;17218;54.070;10.012;2024-03-07T00:17:35;9.47;;;6.20;;
30420;SDS011;17218;54.070;10.012;2024-03-07T00:20:01;13.60;;;6.97;;
30420;SDS011;17218;54.070;10.012;2024-03-07T00:22:29;15.90;;;7.33;;
30420;SDS011;17218;54.070;10.012;2024-03-07T00:24:56;17.40;;;6.75;;
30420;SDS011;17218;54.070;10.012;2024-03-07T00:27:22;14.63;;;7.37;;
30420;SDS011;17218;54.070;10.012;2024-03-07T00:29:49;12.40;;;7.63;;
30420;SDS011;17218;54.070;10.012;2024-03-07T00:32:18;14.67;;;7.27;;
30420;SDS011;17218;54.070;10.012;2024-03-07T00:34:47;15.37;;;7.40;;
30420;SDS011;17218;54.070;10.012;2024-03-07T00:37:13;14.53;;;6.47;;
30420;SDS011;17218;54.070;10.012;2024-03-07T00:39:40;12.23;;;7.13;;
30420;SDS011;17218;54.070;10.012;2024-03-07T00:42:06;14.43;;;7.00;;
30420;SDS011;17218;54.070;10.012;2024-03-07T00:44:33;16.33;;;8.17;;
30420;SDS011;17218;54.070;10.012;2024-03-07T00:47:00;13.97;;;8.43;;
30420;SDS011;17218;54.070;10.012;2024-03-07T00:49:27;15.33;;;8.63;;
30420;SDS011;17218;54.070;10.012;2024-03-07T00:51:55;13.87;;;7.30;;
30420;SDS011;17218;54.070;10.012;2024-03-07T00:54:21;14.27;;;7.47;;
30420;SDS011;17218;54.070;10.012;2024-03-07T00:56:48;16.33;;;8.00;;
30420;SDS011;17218;54.070;10.012;2024-03-07T00:59:15;14.47;;;6.93;;
30420;SDS011;17218;54.070;10.012;2024-03-07T01:01:41;15.47;;;7.30;;
30420;SDS011;17218;54.070;10.012;2024-03-07T01:04:08;16.02;;;6.18;;
30420;SDS011;17218;54.070;10.012;2024-03-07T01:06:35;16.03;;;7.10;;
30420;SDS011;17218;54.070;10.012;2024-03-07T01:09:03;11.83;;;6.77;;
30420;SDS011;17218;54.070;10.012;2024-03-07T01:11:38;15.73;;;6.67;;
30420;SDS011;17218;54.070;10.012;2024-03-07T01:14:04;10.20;;;6.37;;
30420;SDS011;17218;54.070;10.012;2024-03-07T01:16:31;12.87;;;6.70;;
30420;SDS011;17218;54.070;10.012;2024-03-07T01:18:57;13.23;;;7.00;;
30420;SDS011;17218;54.070;10.012;2024-03-07T01:21:24;14.20;;;6.70;;
30420;SDS011;17218;54.070;10.012;2024-03-07T01:23:51;10.90;;;6.50;;
30420;SDS011;17218;54.070;10.012;2024-03-07T01:26:18;14.97;;;5.80;;
30420;SDS011;17218;54.070;10.012;2024-03-07T01:28:45;11.77;;;5.67;;
30420;SDS011;17218;54.070;10.012;2024-03-07T01:31:11;9.67;;;5.40;;
30420;SDS011;17218;54.070;10.012;2024-03-07T01:33:38;10.93;;;5.37;;
30420;SDS011;17218;54.070;10.012;2024-03-07T01:36:04;14.63;;;6.13;;
30420;SDS011;17218;54.070;10.012;2024-03-07T01:38:31;10.57;;;5.90;;
30420;SDS011;17218;54.070;10.012;2024-03-07T01:40:58;15.00;;;5.43;;
30420;SDS011;17218;54.070;10.012;2024-03-07T01:43:25;11.20;;;6.00;;
30420;SDS011;17218;54.070;10.012;2024-03-07T01:45:53;11.37;;;6.30;;
30420;SDS011;17218;54.070;10.012;2024-03-07T01:48:24;8.60;;;5.10;;
30420;SDS011;17218;54.070;10.012;2024-03-07T01:50:53;14.03;;;6.00;;
30420;SDS011;17218;54.070;10.012;2024-03-07T01:53:20;8.67;;;5.80;;
30420;SDS011;17218;54.070;10.012;2024-03-07T01:55:47;12.93;;;5.80;;
30420;SDS011;17218;54.070;10.012;2024-03-07T01:58:16;8.37;;;5.83;;
30420;SDS011;17218;54.070;10.012;2024-03-07T02:00:46;10.87;;;5.70;;
30420;SDS011;17218;54.070;10.012;2024-03-07T02:03:12;12.10;;;5.40;;
30420;SDS011;17218;54.070;10.012;2024-03-07T02:05:39;10.93;;;6.07;;
30420;SDS011;17218;54.070;10.012;2024-03-07T02:08:06;15.40;;;6.80;;
30420;SDS011;17218;54.070;10.012;2024-03-07T02:10:32;14.50;;;5.77;;
30420;SDS011;17218;54.070;10.012;2024-03-07T02:12:59;8.50;;;5.90;;
30420;SDS011;17218;54.070;10.012;2024-03-07T02:15:25;16.97;;;6.73;;
30420;SDS011;17218;54.070;10.012;2024-03-07T02:17:53;12.83;;;6.37;;
30420;SDS011;17218;54.070;10.012;2024-03-07T02:20:20;10.47;;;5.93;;
30420;SDS011;17218;54.070;10.012;2024-03-07T02:22:48;11.50;;;5.57;;
30420;SDS011;17218;54.070;10.012;2024-03-07T02:25:15;9.73;;;5.33;;
30420;SDS011;17218;54.070;10.012;2024-03-07T02:27:42;9.40;;;5.33;;
30420;SDS011;17218;54.070;10.012;2024-03-07T02:30:10;11.37;;;5.60;;
30420;SDS011;17218;54.070;10.012;2024-03-07T02:32:38;10.20;;;5.23;;
30420;SDS011;17218;54.070;10.012;2024-03-07T02:35:05;8.73;;;4.83;;
30420;SDS011;17218;54.070;10.012;2024-03-07T02:37:33;9.53;;;5.43;;
30420;SDS011;17218;54.070;10.012;2024-03-07T02:40:01;8.87;;;5.70;;
30420;SDS011;17218;54.070;10.012;2024-03-07T02:42:28;9.80;;;5.87;;
30420;SDS011;17218;54.070;10.012;2024-03-07T02:44:54;15.60;;;5.50;;
30420;SDS011;17218;54.070;10.012;2024-03-07T02:47:21;8.70;;;5.53;;
30420;SDS011;17218;54.070;10.012;2024-03-07T02:49:48;10.67;;;5.47;;
30420;SDS011;17218;54.070;10.012;2024-03-07T02:52:15;9.17;;;5.27;;
30420;SDS011;17218;54.070;10.012;2024-03-07T02:54:42;7.90;;;5.20;;
30420;SDS011;17218;54.070;10.012;2024-03-07T02:57:09;10.43;;;5.03;;
30420;SDS011;17218;54.070;10.012;2024-03-07T02:59:36;11.57;;;5.33;;
30420;SDS011;17218;54.070;10.012;2024-03-07T03:02:03;10.10;;;4.97;;
30420;SDS011;17218;54.070;10.012;2024-03-07T03:04:30;7.13;;;4.73;;
30420;SDS011;17218;54.070;10.012;2024-03-07T03:06:57;7.60;;;4.73;;
30420;SDS011;17218;54.070;10.012;2024-03-07T03:09:24;9.20;;;4.53;;
30420;SDS011;17218;54.070;10.012;2024-03-07T03:11:52;10.37;;;5.70;;
30420;SDS011;17218;54.070;10.012;2024-03-07T03:14:20;11.30;;;4.80;;
30420;SDS011;17218;54.070;10.012;2024-03-07T03:16:47;9.23;;;4.83;;
30420;SDS011;17218;54.070;10.012;2024-03-07T03:19:13;8.17;;;5.13;;
30420;SDS011;17218;54.070;10.012;2024-03-07T03:21:40;8.30;;;4.80;;
30420;SDS011;17218;54.070;10.012;2024-03-07T03:24:07;9.10;;;5.07;;
30420;SDS011;17218;54.070;10.012;2024-03-07T03:26:34;6.63;;;4.37;;
30420;SDS011;17218;54.070;10.012;2024-03-07T03:29:00;8.10;;;4.63;;
30420;SDS011;17218;54.070;10.012;2024-03-07T03:31:29;7.73;;;4.80;;
30420;SDS011;17218;54.070;10.012;2024-03-07T03:33:55;6.77;;;4.60;;
30420;SDS011;17218;54.070;10.012;2024-03-07T03:36:22;9.70;;;5.27;;
30420;SDS011;17218;54.070;10.012;2024-03-07T03:38:50;6.83;;;4.93;;
30420;SDS011;17218;54.070;10.012;2024-03-07T03:41:16;10.63;;;4.87;;
30420;SDS011;17218;54.070;10.012;2024-03-07T03:43:43;4.77;;;3.80;;
30420;SDS011;17218;54.070;10.012;2024-03-07T03:46:10;10.43;;;5.10;;
30420;SDS011;17218;54.070;10.012;2024-03-07T03:48:39;11.83;;;5.03;;
30420;SDS011;17218;54.070;10.012;2024-03-07T03:51:06;7.30;;;5.20;;
30420;SDS011;17218;54.070;10.012;2024-03-07T03:53:33;10.00;;;5.10;;
30420;SDS011;17218;54.070;10.012;2024-03-07T03:55:59;6.60;;;4.30;;
30420;SDS011;17218;54.070;10.012;2024-03-07T03:58:26;7.40;;;5.07;;
30420;SDS011;17218;54.070;10.012;2024-03-07T04:00:53;7.50;;;5.00;;
30420;SDS011;17218;54.070;10.012;2024-03-07T04:03:19;7.93;;;4.83;;
30420;SDS011;17218;54.070;10.012;2024-03-07T04:05:47;10.00;;;5.40;;
30420;SDS011;17218;54.070;10.012;2024-03-07T04:08:14;8.50;;;4.70;;
30420;SDS011;17218;54.070;10.012;2024-03-07T04:10:40;8.67;;;4.70;;
30420;SDS011;17218;54.070;10.012;2024-03-07T04:13:07;8.60;;;5.10;;
30420;SDS011;17218;54.070;10.012;2024-03-07T04:15:33;9.47;;;5.27;;
30420;SDS011;17218;54.070;10.012;2024-03-07T04:18:00;8.37;;;4.87;;
30420;SDS011;17218;54.070;10.012;2024-03-07T04:20:26;8.40;;;5.27;;
30420;SDS011;17218;54.070;10.012;2024-03-07T04:22:54;10.53;;;4.90;;
30420;SDS011;17218;54.070;10.012;2024-03-07T04:25:21;8.20;;;4.90;;
30420;SDS011;17218;54.070;10.012;2024-03-07T04:27:50;8.13;;;5.07;;
30420;SDS011;17218;54.070;10.012;2024-03-07T04:30:16;8.30;;;5.27;;
30420;SDS011;17218;54.070;10.012;2024-03-07T04:32:42;7.13;;;4.67;;
30420;SDS011;17218;54.070;10.012;2024-03-07T04:35:09;8.13;;;5.40;;
30420;SDS011;17218;54.070;10.012;2024-03-07T04:37:36;7.60;;;5.13;;
30420;SDS011;17218;54.070;10.012;2024-03-07T04:40:04;9.23;;;5.10;;
30420;SDS011;17218;54.070;10.012;2024-03-07T04:42:40;6.83;;;4.77;;
30420;SDS011;17218;54.070;10.012;2024-03-07T04:45:07;7.03;;;4.43;;
30420;SDS011;17218;54.070;10.012;2024-03-07T04:47:35;8.53;;;5.20;;
30420;SDS011;17218;54.070;10.012;2024-03-07T04:50:02;5.80;;;4.60;;
30420;SDS011;17218;54.070;10.012;2024-03-07T04:52:30;7.90;;;4.77;;
30420;SDS011;17218;54.070;10.012;2024-03-07T04:54:56;7.83;;;4.67;;
30420;SDS011;17218;54.070;10.012;2024-03-07T05:04:08;8.63;;;4.97;;
30420;SDS011;17218;54.070;10.012;2024-03-07T05:06:35;9.70;;;5.43;;
30420;SDS011;17218;54.070;10.012;2024-03-07T05:09:01;8.37;;;4.20;;
30420;SDS011;17218;54.070;10.012;2024-03-07T05:11:28;8.97;;;4.80;;
30420;SDS011;17218;54.070;10.012;2024-03-07T05:13:55;10.20;;;4.57;;
30420;SDS011;17218;54.070;10.012;2024-03-07T05:16:21;8.97;;;4.90;;
30420;SDS011;17218;54.070;10.012;2024-03-07T05:18:47;9.07;;;4.93;;
30420;SDS011;17218;54.070;10.012;2024-03-07T05:21:16;10.43;;;5.63;;
30420;SDS011;17218;54.070;10.012;2024-03-07T05:24:05;6.93;;;4.57;;
30420;SDS011;17218;54.070;10.012;2024-03-07T05:26:33;6.43;;;4.57;;
30420;SDS011;17218;54.070;10.012;2024-03-07T05:29:02;9.03;;;5.07;;
30420;SDS011;17218;54.070;10.012;2024-03-07T05:31:32;11.63;;;4.83;;
30420;SDS011;17218;54.070;10.012;2024-03-07T05:34:00;10.93;;;5.37;;
30420;SDS011;17218;54.070;10.012;2024-03-07T05:36:30;9.83;;;4.57;;
30420;SDS011;17218;54.070;10.012;2024-03-07T05:38:57;11.53;;;5.17;;
30420;SDS011;17218;54.070;10.012;2024-03-07T05:41:24;8.50;;;5.53;;
30420;SDS011;17218;54.070;10.012;2024-03-07T05:43:54;9.53;;;5.23;;
30420;SDS011;17218;54.070;10.012;2024-03-07T05:46:21;10.73;;;5.07;;
30420;SDS011;17218;54.070;10.012;2024-03-07T05:48:48;10.33;;;5.50;;
30420;SDS011;17218;54.070;10.012;2024-03-07T05:51:17;9.70;;;5.20;;
30420;SDS011;17218;54.070;10.012;2024-03-07T05:53:45;8.27;;;5.57;;
30420;SDS011;17218;54.070;10.012;2024-03-07T05:56:11;9.50;;;5.73;;
30420;SDS011;17218;54.070;10.012;2024-03-07T05:58:39;9.10;;;5.33;;
30420;SDS011;17218;54.070;10.012;2024-03-07T06:01:06;11.07;;;4.77;;
30420;SDS011;17218;54.070;10.012;2024-03-07T06:03:33;10.20;;;5.97;;
30420;SDS011;17218;54.070;10.012;2024-03-07T06:05:59;8.53;;;5.70;;
30420;SDS011;17218;54.070;10.012;2024-03-07T06:08:26;10.63;;;5.67;;
30420;SDS011;17218;54.070;10.012;2024-03-07T06:10:54;10.57;;;5.97;;
30420;SDS011;17218;54.070;10.012;2024-03-07T06:13:20;9.17;;;4.97;;
30420;SDS011;17218;54.070;10.012;2024-03-07T06:15:47;9.37;;;6.10;;
30420;SDS011;17218;54.070;10.012;2024-03-07T06:18:13;8.80;;;5.50;;
30420;SDS011;17218;54.070;10.012;2024-03-07T06:20:40;9.90;;;5.03;;
30420;SDS011;17218;54.070;10.012;2024-03-07T06:23:07;7.53;;;4.73;;
30420;SDS011;17218;54.070;10.012;2024-03-07T06:25:36;10.73;;;5.50;;
30420;SDS011;17218;54.070;10.012;2024-03-07T06:28:13;8.47;;;5.17;;
30420;SDS011;17218;54.070;10.012;2024-03-07T06:30:40;8.57;;;5.47;;
30420;SDS011;17218;54.070;10.012;2024-03-07T06:33:08;9.57;;;5.00;;
30420;SDS011;17218;54.070;10.012;2024-03-07T06:35:34;10.50;;;6.17;;
30420;SDS011;17218;54.070;10.012;2024-03-07T06:38:02;9.30;;;5.37;;
30420;SDS011;17218;54.070;10.012;2024-03-07T06:40:28;12.47;;;5.87;;
30420;SDS011;17218;54.070;10.012;2024-03-07T06:42:55;5.63;;;3.83;;
30420;SDS011;17218;54.070;10.012;2024-03-07T06:45:23;7.17;;;4.07;;
30420;SDS011;17218;54.070;10.012;2024-03-07T06:47:50;8.07;;;4.77;;
30420;SDS011;17218;54.070;10.012;2024-03-07T06:50:17;7.53;;;4.73;;
30420;SDS011;17218;54.070;10.012;2024-03-07T06:52:44;8.07;;;4.40;;
30420;SDS011;17218;54.070;10.012;2024-03-07T06:55:12;10.07;;;4.90;;
30420;SDS011;17218;54.070;10.012;2024-03-07T06:57:40;10.07;;;4.23;;
30420;SDS011;17218;54.070;10.012;2024-03-07T07:00:08;9.30;;;4.20;;
30420;SDS011;17218;54.070;10.012;2024-03-07T07:02:38;6.77;;;4.43;;
30420;SDS011;17218;54.070;10.012;2024-03-07T07:05:05;8.73;;;4.37;;
30420;SDS011;17218;54.070;10.012;2024-03-07T07:07:36;7.00;;;4.27;;
30420;SDS011;17218;54.070;10.012;2024-03-07T07:10:03;9.80;;;4.10;;
30420;SDS011;17218;54.070;10.012;2024-03-07T07:12:32;12.40;;;3.90;;
30420;SDS011;17218;54.070;10.012;2024-03-07T07:15:00;7.13;;;4.67;;
30420;SDS011;17218;54.070;10.012;2024-03-07T07:17:26;8.13;;;4.33;;
30420;SDS011;17218;54.070;10.012;2024-03-07T07:19:56;6.37;;;4.50;;
30420;SDS011;17218;54.070;10.012;2024-03-07T07:22:23;7.10;;;4.60;;
30420;SDS011;17218;54.070;10.012;2024-03-07T07:24:49;7.63;;;4.00;;
30420;SDS011;17218;54.070;10.012;2024-03-07T07:27:16;5.67;;;3.83;;
30420;SDS011;17218;54.070;10.012;2024-03-07T07:29:43;7.87;;;4.33;;
30420;SDS011;17218;54.070;10.012;2024-03-07T07:32:10;7.60;;;4.27;;
30420;SDS011;17218;54.070;10.012;2024-03-07T07:34:37;7.40;;;4.23;;
30420;SDS011;17218;54.070;10.012;2024-03-07T07:37:05;8.40;;;4.60;;
30420;SDS011;17218;54.070;10.012;2024-03-07T07:39:34;9.27;;;5.27;;
30420;SDS011;17218;54.070;10.012;2024-03-07T07:42:00;7.93;;;4.10;;
30420;SDS011;17218;54.070;10.012;2024-03-07T07:44:27;10.43;;;5.10;;
30420;SDS011;17218;54.070;10.012;2024-03-07T07:46:54;7.43;;;4.40;;
30420;SDS011;17218;54.070;10.012;2024-03-07T07:49:20;9.53;;;4.43;;
30420;SDS011;17218;54.070;10.012;2024-03-07T07:51:47;11.03;;;5.50;;
30420;SDS011;17218;54.070;10.012;2024-03-07T07:54:15;6.43;;;4.07;;
30420;SDS011;17218;54.070;10.012;2024-03-07T07:56:42;7.27;;;4.70;;
30420;SDS011;17218;54.070;10.012;2024-03-07T07:59:09;6.73;;;4.37;;
30420;SDS011;17218;54.070;10.012;2024-03-07T08:01:36;9.47;;;5.03;;
30420;SDS011;17218;54.070;10.012;2024-03-07T08:04:02;8.47;;;5.03;;
30420;SDS011;17218;54.070;10.012;2024-03-07T08:06:29;8.40;;;5.17;;
30420;SDS011;17218;54.070;10.012;2024-03-07T08:08:56;9.60;;;4.83;;
30420;SDS011;17218;54.070;10.012;2024-03-07T08:11:24;8.87;;;5.43;;
30420;SDS011;17218;54.070;10.012;2024-03-07T08:13:51;8.60;;;5.17;;
30420;SDS011;17218;54.070;10.012;2024-03-07T08:16:17;9.50;;;5.43;;
30420;SDS011;17218;54.070;10.012;2024-03-07T08:18:44;10.52;;;5.07;;
30420;SDS011;17218;54.070;10.012;2024-03-07T08:21:10;8.20;;;5.07;;
30420;SDS011;17218;54.070;10.012;2024-03-07T08:23:37;8.47;;;5.37;;
30420;SDS011;17218;54.070;10.012;2024-03-07T08:26:04;10.68;;;5.65;;
30420;SDS011;17218;54.070;10.012;2024-03-07T08:28:32;8.77;;;4.83;;
30420;SDS011;17218;54.070;10.012;2024-03-07T08:30:59;8.00;;;5.33;;
30420;SDS011;17218;54.070;10.012;2024-03-07T08:33:25;7.40;;;5.00;;
30420;SDS011;17218;54.070;10.012;2024-03-07T08:35:52;9.17;;;5.23;;
30420;SDS011;17218;54.070;10.012;2024-03-07T08:38:19;9.13;;;5.37;;
30420;SDS011;17218;54.070;10.012;2024-03-07T08:40:45;12.45;;;5.95;;
30420;SDS011;17218;54.070;10.012;2024-03-07T08:43:12;8.35;;;5.55;;
30420;SDS011;17218;54.070;10.012;2024-03-07T08:45:40;10.30;;;5.73;;
30420;SDS011;17218;54.070;10.012;2024-03-07T08:48:07;9.63;;;6.22;;
30420;SDS011;17218;54.070;10.012;2024-03-07T08:50:34;13.70;;;6.40;;
30420;SDS011;17218;54.070;10.012;2024-03-07T08:53:02;13.77;;;5.70;;
30420;SDS011;17218;54.070;10.012;2024-03-07T08:55:30;10.67;;;5.77;;
30420;SDS011;17218;54.070;10.012;2024-03-07T08:57:57;9.13;;;6.00;;
30420;SDS011;17218;54.070;10.012;2024-03-07T09:00:23;11.07;;;6.47;;
30420;SDS011;17218;54.070;10.012;2024-03-07T09:02:52;10.53;;;6.23;;
30420;SDS011;17218;54.070;10.012;2024-03-07T09:05:20;9.45;;;5.97;;
30420;SDS011;17218;54.070;10.012;2024-03-07T09:07:48;10.20;;;6.10;;
30420;SDS011;17218;54.070;10.012;2024-03-07T09:10:15;11.63;;;6.93;;
30420;SDS011;17218;54.070;10.012;2024-03-07T09:12:42;12.57;;;6.97;;
30420;SDS011;17218;54.070;10.012;2024-03-07T09:15:09;12.63;;;7.30;;
30420;SDS011;17218;54.070;10.012;2024-03-07T09:17:36;10.80;;;6.63;;
30420;SDS011;17218;54.070;10.012;2024-03-07T09:20:05;13.83;;;7.47;;
30420;SDS011;17218;54.070;10.012;2024-03-07T09:22:33;11.93;;;7.33;;
30420;SDS011;17218;54.070;10.012;2024-03-07T09:25:00;13.93;;;7.43;;
30420;SDS011;17218;54.070;10.012;2024-03-07T09:27:27;15.07;;;7.53;;
30420;SDS011;17218;54.070;10.012;2024-03-07T09:29:53;11.53;;;6.87;;
30420;SDS011;17218;54.070;10.012;2024-03-07T09:32:20;10.40;;;6.77;;
30420;SDS011;17218;54.070;10.012;2024-03-07T09:34:47;16.47;;;7.37;;
30420;SDS011;17218;54.070;10.012;2024-03-07T09:37:16;12.13;;;7.73;;
30420;SDS011;17218;54.070;10.012;2024-03-07T09:39:43;13.87;;;7.37;;
30420;SDS011;17218;54.070;10.012;2024-03-07T09:42:09;12.93;;;7.43;;
30420;SDS011;17218;54.070;10.012;2024-03-07T09:44:38;14.53;;;7.97;;
30420;SDS011;17218;54.070;10.012;2024-03-07T09:47:07;12.67;;;7.40;;
30420;SDS011;17218;54.070;10.012;2024-03-07T09:49:33;11.60;;;7.50;;
30420;SDS011;17218;54.070;10.012;2024-03-07T09:52:01;14.38;;;8.18;;
30420;SDS011;17218;54.070;10.012;2024-03-07T09:54:34;12.67;;;7.13;;
30420;SDS011;17218;54.070;10.012;2024-03-07T09:57:02;13.20;;;7.23;;
30420;SDS011;17218;54.070;10.012;2024-03-07T09:59:30;14.40;;;7.50;;
30420;SDS011;17218;54.070;10.012;2024-03-07T10:02:00;13.27;;;7.53;;
30420;SDS011;17218;54.070;10.012;2024-03-07T10:04:37;13.17;;;7.87;;
30420;SDS011;17218;54.070;10.012;2024-03-07T10:07:06;14.17;;;8.07;;
30420;SDS011;17218;54.070;10.012;2024-03-07T10:09:37;15.33;;;9.07;;
30420;SDS011;17218;54.070;10.012;2024-03-07T10:12:05;15.47;;;9.03;;
30420;SDS011;17218;54.070;10.012;2024-03-07T10:14:34;16.50;;;8.23;;
30420;SDS011;17218;54.070;10.012;2024-03-07T10:17:02;12.93;;;8.20;;
30420;SDS011;17218;54.070;10.012;2024-03-07T10:19:29;14.30;;;8.73;;
30420;SDS011;17218;54.070;10.012;2024-03-07T10:21:56;18.00;;;8.50;;
30420;SDS011;17218;54.070;10.012;2024-03-07T10:24:26;14.83;;;8.17;;
30420;SDS011;17218;54.070;10.012;2024-03-07T10:26:54;15.13;;;8.00;;
30420;SDS011;17218;54.070;10.012;2024-03-07T10:29:23;14.47;;;8.60;;
30420;SDS011;17218;54.070;10.012;2024-03-07T10:31:50;14.53;;;9.27;;
30420;SDS011;17218;54.070;10.012;2024-03-07T10:34:16;17.80;;;8.73;;
30420;SDS011;17218;54.070;10.012;2024-03-07T10:36:43;19.63;;;9.60;;
30420;SDS011;17218;54.070;10.012;2024-03-07T10:39:10;18.60;;;9.37;;
30420;SDS011;17218;54.070;10.012;2024-03-07T10:41:42;15.87;;;8.70;;
30420;SDS011;17218;54.070;10.012;2024-03-07T10:44:14;17.57;;;9.23;;
30420;SDS011;17218;54.070;10.012;2024-03-07T10:46:44;17.10;;;8.73;;
30420;SDS011;17218;54.070;10.012;2024-03-07T10:49:18;15.67;;;8.77;;
30420;SDS011;17218;54.070;10.012;2024-03-07T10:51:46;17.03;;;8.63;;
30420;SDS011;17218;54.070;10.012;2024-03-07T10:54:24;14.93;;;9.40;;
30420;SDS011;17218;54.070;10.012;2024-03-07T10:57:05;19.87;;;8.90;;
30420;SDS011;17218;54.070;10.012;2024-03-07T10:59:49;16.87;;;9.53;;
30420;SDS011;17218;54.070;10.012;2024-03-07T11:02:24;17.43;;;8.77;;
30420;SDS011;17218;54.070;10.012;2024-03-07T11:04:57;17.57;;;8.83;;
30420;SDS011;17218;54.070;10.012;2024-03-07T11:07:25;14.45;;;8.77;;
30420;SDS011;17218;54.070;10.012;2024-03-07T11:09:54;15.03;;;8.27;;
30420;SDS011;17218;54.070;10.012;2024-03-07T11:12:22;22.20;;;9.53;;
30420;SDS011;17218;54.070;10.012;2024-03-07T11:14:54;16.63;;;9.10;;
30420;SDS011;17218;54.070;10.012;2024-03-07T11:17:22;18.77;;;9.90;;
30420;SDS011;17218;54.070;10.012;2024-03-07T11:19:50;16.40;;;10.47;;
30420;SDS011;17218;54.070;10.012;2024-03-07T11:22:28;16.67;;;8.90;;
30420;SDS011;17218;54.070;10.012;2024-03-07T11:24:59;18.13;;;9.27;;
30420;SDS011;17218;54.070;10.012;2024-03-07T11:27:31;17.23;;;8.07;;
30420;SDS011;17218;54.070;10.012;2024-03-07T11:30:05;12.55;;;8.23;;
30420;SDS011;17218;54.070;10.012;2024-03-07T11:32:34;15.57;;;8.47;;
30420;SDS011;17218;54.070;10.012;2024-03-07T11:35:03;14.02;;;8.90;;
30420;SDS011;17218;54.070;10.012;2024-03-07T11:37:38;12.02;;;7.43;;
30420;SDS011;17218;54.070;10.012;2024-03-07T11:40:09;13.70;;;8.80;;
30420;SDS011;17218;54.070;10.012;2024-03-07T11:42:43;14.90;;;8.20;;
30420;SDS011;17218;54.070;10.012;2024-03-07T11:45:13;14.70;;;8.80;;
30420;SDS011;17218;54.070;10.012;2024-03-07T11:47:50;14.85;;;8.63;;
30420;SDS011;17218;54.070;10.012;2024-03-07T11:50:18;14.60;;;7.78;;
30420;SDS011;17218;54.070;10.012;2024-03-07T11:52:45;12.13;;;7.47;;
30420;SDS011;17218;54.070;10.012;2024-03-07T11:55:11;12.95;;;7.53;;
30420;SDS011;17218;54.070;10.012;2024-03-07T11:57:38;14.25;;;9.10;;
30420;SDS011;17218;54.070;10.012;2024-03-07T12:00:09;13.38;;;8.38;;
30420;SDS011;17218;54.070;10.012;2024-03-07T12:02:40;15.25;;;8.15;;
30420;SDS011;17218;54.070;10.012;2024-03-07T12:05:08;14.18;;;7.68;;
30420;SDS011;17218;54.070;10.012;2024-03-07T12:07:35;12.70;;;8.00;;
30420;SDS011;17218;54.070;10.012;2024-03-07T12:10:03;15.30;;;8.13;;
30420;SDS011;17218;54.070;10.012;2024-03-07T12:12:30;13.82;;;7.05;;
30420;SDS011;17218;54.070;10.012;2024-03-07T12:14:58;15.35;;;7.93;;
30420;SDS011;17218;54.070;10.012;2024-03-07T12:17:25;11.85;;;7.55;;
30420;SDS011;17218;54.070;10.012;2024-03-07T12:19:56;12.13;;;7.28;;
30420;SDS011;17218;54.070;10.012;2024-03-07T12:22:26;13.57;;;8.20;;
30420;SDS011;17218;54.070;10.012;2024-03-07T12:24:59;13.65;;;7.85;;
30420;SDS011;17218;54.070;10.012;2024-03-07T12:27:27;12.85;;;8.38;;
30420;SDS011;17218;54.070;10.012;2024-03-07T12:29:54;15.00;;;8.43;;
30420;SDS011;17218;54.070;10.012;2024-03-07T12:32:20;14.07;;;8.00;;
30420;SDS011;17218;54.070;10.012;2024-03-07T12:34:47;14.25;;;8.73;;
30420;SDS011;17218;54.070;10.012;2024-03-07T12:37:15;13.68;;;8.57;;
30420;SDS011;17218;54.070;10.012;2024-03-07T12:39:41;13.45;;;8.18;;
30420;SDS011;17218;54.070;10.012;2024-03-07T12:42:12;14.13;;;8.10;;
30420;SDS011;17218;54.070;10.012;2024-03-07T12:44:40;15.07;;;8.98;;
30420;SDS011;17218;54.070;10.012;2024-03-07T12:47:08;11.70;;;8.15;;
30420;SDS011;17218;54.070;10.012;2024-03-07T12:49:35;13.07;;;8.05;;
30420;SDS011;17218;54.070;10.012;2024-03-07T12:52:02;13.18;;;8.05;;
30420;SDS011;17218;54.070;10.012;2024-03-07T12:54:32;10.02;;;7.13;;
30420;SDS011;17218;54.070;10.012;2024-03-07T12:56:58;12.85;;;8.38;;
30420;SDS011;17218;54.070;10.012;2024-03-07T12:59:25;12.35;;;8.55;;
30420;SDS011;17218;54.070;10.012;2024-03-07T13:01:51;13.93;;;7.60;;
30420;SDS011;17218;54.070;10.012;2024-03-07T13:04:19;12.93;;;7.93;;
30420;SDS011;17218;54.070;10.012;2024-03-07T13:06:45;11.70;;;8.10;;
30420;SDS011;17218;54.070;10.012;2024-03-07T13:09:12;12.73;;;8.23;;
30420;SDS011;17218;54.070;10.012;2024-03-07T13:11:40;9.85;;;7.55;;
30420;SDS011;17218;54.070;10.012;2024-03-07T13:14:09;10.52;;;8.15;;
30420;SDS011;17218;54.070;10.012;2024-03-07T13:16:36;12.20;;;8.95;;
30420;SDS011;17218;54.070;10.012;2024-03-07T13:19:02;13.25;;;8.25;;
30420;SDS011;17218;54.070;10.012;2024-03-07T13:21:29;13.25;;;8.48;;
30420;SDS011;17218;54.070;10.012;2024-03-07T13:23:56;14.10;;;8.23;;
30420;SDS011;17218;54.070;10.012;2024-03-07T13:26:23;12.77;;;8.60;;
30420;SDS011;17218;54.070;10.012;2024-03-07T13:28:53;12.02;;;8.15;;
30420;SDS011;17218;54.070;10.012;2024-03-07T13:31:20;14.07;;;8.32;;
30420;SDS011;17218;54.070;10.012;2024-03-07T13:33:48;11.38;;;8.20;;
30420;SDS011;17218;54.070;10.012;2024-03-07T13:36:16;10.73;;;8.02;;
30420;SDS011;17218;54.070;10.012;2024-03-07T13:38:47;12.32;;;8.38;;
30420;SDS011;17218;54.070;10.012;2024-03-07T13:41:14;10.90;;;8.63;;
30420;SDS011;17218;54.070;10.012;2024-03-07T13:43:40;12.85;;;7.95;;
30420;SDS011;17218;54.070;10.012;2024-03-07T13:46:08;14.25;;;8.57;;
30420;SDS011;17218;54.070;10.012;2024-03-07T13:48:37;15.38;;;8.57;;
30420;SDS011;17218;54.070;10.012;2024-03-07T13:51:05;14.05;;;8.25;;
30420;SDS011;17218;54.070;10.012;2024-03-07T13:53:33;12.48;;;8.60;;
30420;SDS011;17218;54.070;10.012;2024-03-07T13:56:12;11.85;;;8.13;;
30420;SDS011;17218;54.070;10.012;2024-03-07T13:59:04;9.73;;;7.57;;
30420;SDS011;17218;54.070;10.012;2024-03-07T14:01:47;12.13;;;7.55;;
30420;SDS011;17218;54.070;10.012;2024-03-07T14:04:30;11.80;;;8.35;;
30420;SDS011;17218;54.070;10.012;2024-03-07T14:07:20;12.25;;;8.77;;
30420;SDS011;17218;54.070;10.012;2024-03-07T14:10:05;11.70;;;8.32;;
30420;SDS011;17218;54.070;10.012;2024-03-07T14:13:19;11.05;;;7.93;;
30420;SDS011;17218;54.070;10.012;2024-03-07T14:16:21;11.15;;;8.20;;
30420;SDS011;17218;54.070;10.012;2024-03-07T14:19:28;9.88;;;7.68;;
30420;SDS011;17218;54.070;10.012;2024-03-07T14:22:21;12.15;;;8.60;;
30420;SDS011;17218;54.070;10.012;2024-03-07T14:25:06;12.18;;;8.45;;
30420;SDS011;17218;54.070;10.012;2024-03-07T14:27:50;10.52;;;8.00;;
30420;SDS011;17218;54.070;10.012;2024-03-07T14:30:36;11.40;;;7.60;;
30420;SDS011;17218;54.070;10.012;2024-03-07T14:33:08;13.05;;;7.90;;
30420;SDS011;17218;54.070;10.012;2024-03-07T14:38:29;11.75;;;8.05;;
30420;SDS011;17218;54.070;10.012;2024-03-07T14:41:07;10.90;;;8.40;;
30420;SDS011;17218;54.070;10.012;2024-03-07T14:43:37;13.07;;;9.55;;